KDEC/DEC METAR and TAF weather

Enter ICAO airport designator
Station Type Date Time Source
KDEC METAR 2020/07/11 15:54 UTC NOAA

KDEC 111554Z AUTO 24006KT 10SM CLR 29/21 A2996 RMK AO2 SLP139 T02890206 $


Station Type Date Time Source
KDEC Decoded METAR 2020/07/11 15:54 UTC NOAA

DECATUR AIRPORT, IL, United States (KDEC) 39-50N 88-52W 207M
Jul 11, 2020 - 11:54 AM EDT / 2020.07.11 1554 UTC
Wind: from the WSW (240 degrees) at 7 MPH (6 KT):0
Visibility: 10 mile(s):0
Sky conditions: clear
Temperature: 84.0 F (28.9 C)
Dew Point: 69.1 F (20.6 C)
Relative Humidity: 60%
Pressure (altimeter): 29.96 in. Hg (1014 hPa)
ob: KDEC 111554Z AUTO 24006KT 10SM CLR 29/21 A2996 RMK AO2 SLP139 T02890206
cycle: 16

Station Type Date Time Source
KDEC TAF 2020/07/11 12:22 UTC NOAA

TAF KDEC 111120Z 1112/1212 26005KT P6SM SCT250
FM111600 26007KT P6SM SCT045
FM112000 27009G16KT P6SM VCTS BKN045CB
FM120100 26006KT 6SM SHRA VCTS BKN045CB
FM120500 VRB04KT P6SM BKN100

Example: see airport list